Latest Weather Observations for Nuriootpa

IDS60801

Issued at 4:52 pm CST Wednesday 23 September 2020 (issued every 10 minutes, with the page automatically refreshed every 10 minutes)

About weather observations | Map of weather stations | Latest weather observations for SA | Other Formats
Station Details ID: 023373 Name: NURIOOTPA PIRSA Lat: -34.48 Lon: 139.01 Height: 275.0 m
Data from the previous 72 hours. | See also: Recent months at Nuriootpa
Date/Time
CST
Temp
°C
App
Temp
°C
Dew
Point
°C
Rel
Hum
%
Delta-T
°C
Wind Press
QNH
hPa
Press
MSL
hPa
Rain since
9am
mm
Dir  Spd
km/h
Gust
km/h
Spd
kts
Gust
kts
23/04:30pm 11.7 5.0 5.6 66 2.9 WSW 30 43 16 23 1018.9 1018.9 2.6
23/04:00pm 12.4 5.5 6.5 67 2.8 WSW 32 43 17 23 1018.7 1018.7 2.6
23/03:30pm 12.5 5.5 5.9 64 3.1 WSW 32 50 17 27 1018.6 1018.6 2.6
23/03:00pm 12.5 5.0 6.5 67 2.9 WSW 35 56 19 30 1018.5 1018.5 2.6
23/02:56pm 12.2 4.6 5.8 65 3.0 WSW 35 56 19 30 1018.4 1018.4 2.6
23/02:30pm 12.8 5.6 7.7 71 2.5 WSW 35 48 19 26 1018.5 1018.5 2.6
23/02:00pm 12.8 6.2 7.7 71 2.5 WSW 32 44 17 24 1018.5 1018.5 2.6
23/01:30pm 11.2 5.1 8.4 83 1.4 WSW 30 44 16 24 1018.7 1018.7 2.6
23/01:00pm 10.5 4.1 8.4 87 1.0 WSW 32 43 17 23 1019.0 1019.0 2.2
23/12:30pm 11.5 5.9 8.7 83 1.4 SW 28 39 15 21 1018.9 1018.9 2.2
23/12:00pm 11.2 5.4 8.1 81 1.5 SW 28 43 15 23 1019.1 1019.1 2.2
23/11:30am 11.6 6.1 9.2 85 1.2 SW 28 39 15 21 1019.1 1019.1 2.2
23/11:01am 10.3 4.6 8.4 88 0.9 WSW 28 50 15 27 1019.3 1019.3 2.2
23/11:00am 10.4 5.1 8.5 88 0.9 WSW 26 50 14 27 1019.3 1019.3 2.2
23/10:30am 11.4 6.7 9.3 87 1.1 WSW 24 35 13 19 1019.2 1019.2 1.2
23/10:00am 9.5 4.6 8.6 94 0.4 WSW 24 35 13 19 1019.4 1019.4 1.2
23/09:30am 10.2 5.0 8.8 91 0.7 W 26 37 14 20 1019.2 1019.2 0.0
23/09:00am 10.2 5.7 8.6 90 0.8 W 22 32 12 17 1019.0 1019.0 1.8
23/08:30am 10.3 5.3 9.4 94 0.5 W 26 39 14 21 1018.8 1018.8 1.6
23/08:00am 9.8 5.0 8.9 94 0.4 W 24 37 13 20 1018.5 1018.5 1.4
23/07:30am 8.9 4.8 8.5 97 0.2 W 20 30 11 16 1018.6 1018.6 1.4
23/07:00am 8.6 4.4 8.2 97 0.2 WNW 20 32 11 17 1018.3 1018.3 1.4
23/06:30am 8.4 3.4 8.1 98 0.1 WNW 24 35 13 19 1017.7 1017.7 1.4
23/06:00am 8.2 3.5 7.8 97 0.2 W 22 35 12 19 1017.4 1017.4 1.2
23/05:30am 8.2 3.5 7.8 97 0.2 WNW 22 30 12 16 1017.0 1017.0 1.2
23/05:00am 8.0 3.6 7.6 97 0.2 W 20 28 11 15 1016.9 1016.9 1.0
23/04:30am 8.1 3.8 7.7 97 0.2 WNW 20 28 11 15 1016.6 1016.6 1.0
23/04:00am 8.2 3.8 7.6 96 0.3 W 20 28 11 15 1016.4 1016.4 1.0
23/03:30am 8.0 2.8 7.4 96 0.3 W 24 30 13 16 1016.2 1016.2 1.0
23/03:00am 7.9 3.1 7.3 96 0.3 WNW 22 28 12 15 1016.3 1016.3 1.0
23/02:30am 8.1 3.4 7.7 97 0.2 WNW 22 28 12 15 1016.4 1016.4 1.0
23/02:00am 8.5 3.5 7.9 96 0.3 WNW 24 32 13 17 1016.5 1016.5 1.0
23/01:30am 8.6 4.4 8.2 97 0.2 W 20 30 11 16 1016.7 1016.7 0.6
23/01:00am 8.3 3.2 7.7 96 0.3 W 24 32 13 17 1016.6 1016.6 0.6
23/12:30am 8.5 3.5 7.9 96 0.3 W 24 32 13 17 1016.8 1016.8 0.4
23/12:00am 8.3 3.2 7.5 95 0.4 W 24 35 13 19 1016.7 1016.7 0.2
 
Date/Time
CST
Temp
°C
App
Temp
°C
Dew
Point
°C
Rel
Hum
%
Delta-T
°C
Wind Press
QNH
hPa
Press
MSL
hPa
Rain since
9am
mm
Dir  Spd
km/h
Gust
km/h
Spd
kts
Gust
kts
22/11:30pm 8.6 3.5 7.5 93 0.5 WNW 24 32 13 17 1016.8 1016.8 0.2
22/11:00pm 8.9 4.6 7.7 92 0.6 W 20 32 11 17 1017.1 1017.1 0.2
22/10:30pm 8.9 4.6 7.8 93 0.5 W 20 26 11 14 1017.2 1017.2 0.2
22/10:00pm 8.8 4.5 7.9 94 0.4 W 20 28 11 15 1017.4 1017.4 0.2
22/09:30pm 9.1 4.9 8.2 94 0.4 W 20 26 11 14 1017.4 1017.4 0.2
22/09:00pm 9.4 5.2 8.2 92 0.6 W 20 28 11 15 1017.2 1017.2 0.2
22/08:30pm 9.7 5.1 8.0 89 0.8 W 22 30 12 16 1017.0 1017.0 0.2
22/08:00pm 9.9 5.6 7.8 87 1.0 W 20 32 11 17 1016.7 1016.7 0.2
22/07:30pm 10.1 5.3 7.5 84 1.3 W 22 32 12 17 1016.3 1016.3 0.2
22/07:00pm 10.4 5.6 7.3 81 1.5 W 22 35 12 19 1015.9 1015.9 0.2
22/06:30pm 10.8 5.2 7.3 79 1.7 W 26 37 14 20 1015.2 1015.2 0.2
22/06:00pm 11.3 4.6 7.2 76 2.0 W 32 46 17 25 1014.8 1014.7 0.2
22/05:30pm 12.1 4.4 7.2 72 2.4 W 37 50 20 27 1014.4 1014.3 0.2
22/05:00pm 12.8 4.3 6.8 67 2.9 W 41 61 22 33 1014.0 1014.0 0.2
22/04:42pm 13.5 6.7 7.1 65 3.2 W 32 50 17 27 1013.7 1013.7 0.2
22/04:30pm 13.0 5.7 7.0 67 2.9 WSW 35 50 19 27 1013.5 1013.5 0.2
22/04:00pm 13.2 6.5 8.1 71 2.6 WSW 33 54 18 29 1013.3 1013.3 0.2
22/03:30pm 14.0 5.2 7.3 64 3.3 WSW 43 61 23 33 1013.2 1013.2 0.0
22/03:00pm 13.7 5.6 7.2 65 3.2 WSW 39 59 21 32 1012.9 1012.9 0.0
22/02:30pm 13.0 5.9 9.6 80 1.8 WSW 37 61 20 33 1013.0 1013.0 0.0
22/02:01pm 15.3 6.0 5.0 50 4.9 W 43 65 23 35 1012.5 1012.5 0.0
22/02:00pm 15.8 6.5 4.8 48 5.3 W 43 56 23 30 1012.5 1012.5 0.0
22/01:31pm 15.2 5.8 5.4 52 4.7 W 44 63 24 34 1012.4 1012.4 0.0
22/01:30pm 15.0 5.1 5.0 51 4.8 W 46 63 25 34 1012.3 1012.3 0.0
22/01:00pm 15.2 5.5 5.7 53 4.6 W 46 70 25 38 1012.5 1012.5 0.0
22/12:30pm 14.8 5.0 5.3 53 4.6 W 46 67 25 36 1012.4 1012.4 0.0
22/12:00pm 15.0 5.6 5.5 53 4.6 W 44 70 24 38 1012.4 1012.4 0.0
22/11:30am 14.7 5.2 6.5 58 4.0 W 46 67 25 36 1012.3 1012.3 0.0
22/11:00am 13.9 4.0 6.7 62 3.5 W 48 72 26 39 1011.9 1011.8 0.0
22/10:30am 11.8 1.6 7.1 73 2.3 W 50 74 27 40 1011.9 1011.8 0.0
22/10:00am 13.6 3.3 6.7 63 3.4 W 50 69 27 37 1011.2 1011.1 0.0
22/09:30am 13.0 2.9 7.2 68 2.9 W 50 70 27 38 1011.0 1010.9 0.0
22/09:00am 11.9 2.7 8.0 77 1.9 WNW 46 67 25 36 1010.7 1010.6 0.2
22/08:30am 11.4 1.1 8.3 81 1.5 W 52 70 28 38 1010.3 1010.3 0.2
22/08:00am 10.7 1.6 8.3 85 1.2 W 46 67 25 36 1010.0 1010.0 0.2
22/07:30am 9.8 -0.1 8.2 90 0.8 WNW 50 72 27 39 1009.5 1009.5 0.2
22/07:03am 9.4 0.2 8.2 92 0.6 WNW 46 65 25 35 1009.2 1009.2 0.2
22/07:00am 9.3 -0.3 8.1 92 0.6 WNW 48 63 26 34 1009.1 1009.1 0.2
22/06:33am 9.0 0.1 7.5 90 0.7 WNW 44 63 24 34 1008.9 1008.8 0.2
22/06:30am 9.1 -0.2 7.5 90 0.8 WNW 46 63 25 34 1009.0 1009.0 0.2
22/06:00am 9.3 -0.4 7.4 88 0.9 WNW 48 69 26 37 1008.5 1008.4 0.2
22/05:30am 9.2 -0.2 7.3 88 0.9 WNW 46 67 25 36 1008.4 1008.3 0.2
22/05:03am 9.2 0.5 7.5 89 0.8 WNW 43 61 23 33 1008.3 1008.2 0.2
22/05:00am 9.2 0.8 7.5 89 0.8 WNW 41 57 22 31 1008.3 1008.2 0.2
22/04:37am 9.3 1.0 7.6 89 0.8 WNW 41 61 22 33 1008.1 1008.0 0.2
22/04:30am 9.2 1.2 7.5 89 0.8 WNW 39 56 21 30 1008.2 1008.1 0.2
22/04:00am 9.1 0.7 7.4 89 0.8 WNW 41 63 22 34 1008.2 1008.1 0.2
22/03:31am 9.0 0.6 7.5 90 0.7 WNW 41 61 22 33 1008.1 1008.0 0.2
22/03:30am 8.9 0.9 7.4 90 0.7 WNW 39 54 21 29 1008.1 1008.0 0.2
22/03:11am 8.9 0.5 7.4 90 0.7 WNW 41 61 22 33 1008.2 1008.1 0.2
22/03:00am 9.0 0.3 7.5 90 0.7 WNW 43 57 23 31 1008.2 1008.1 0.2
22/02:43am 9.1 0.7 7.4 89 0.8 WNW 41 59 22 32 1008.0 1007.9 0.2
22/02:30am 9.0 0.7 7.6 91 0.7 WNW 41 56 22 30 1008.1 1008.0 0.2
22/02:20am 9.0 1.1 7.8 92 0.6 WNW 39 65 21 35 1008.3 1008.2 0.2
22/02:00am 9.1 1.6 7.9 92 0.6 WNW 37 54 20 29 1008.3 1008.2 0.2
22/01:30am 9.3 1.7 7.6 89 0.8 WNW 37 57 20 31 1008.6 1008.5 0.2
22/01:07am 9.6 2.0 7.4 86 1.1 WNW 37 56 20 30 1008.5 1008.4 0.2
22/01:00am 9.6 1.6 7.5 87 1.0 WNW 39 54 21 29 1008.5 1008.4 0.2
22/12:33am 9.8 3.1 8.2 90 0.8 WNW 33 52 18 28 1008.6 1008.5 0.2
22/12:30am 9.9 3.3 8.5 91 0.7 WNW 33 50 18 27 1008.6 1008.5 0.2
22/12:10am 9.9 3.0 8.7 92 0.6 WNW 35 54 19 29 1008.7 1008.6 0.2
22/12:00am 9.9 3.4 8.8 93 0.5 WNW 33 46 18 25 1008.8 1008.7 0.2
 
Date/Time
CST
Temp
°C
App
Temp
°C
Dew
Point
°C
Rel
Hum
%
Delta-T
°C
Wind Press
QNH
hPa
Press
MSL
hPa
Rain since
9am
mm
Dir  Spd
km/h
Gust
km/h
Spd
kts
Gust
kts
21/11:30pm 10.1 3.5 8.7 91 0.7 WNW 33 46 18 25 1008.9 1008.8 0.2
21/11:00pm 10.4 3.9 8.8 90 0.8 WNW 33 52 18 28 1009.0 1009.0 0.2
21/10:31pm 11.0 4.7 8.9 87 1.1 WNW 32 54 17 29 1009.0 1009.0 0.2
21/10:30pm 11.0 4.7 8.9 87 1.1 WNW 32 46 17 25 1009.0 1009.0 0.2
21/10:00pm 11.0 5.3 8.2 83 1.4 WNW 28 46 15 25 1008.9 1008.8 0.2
21/09:54pm 11.1 5.3 8.1 82 1.5 WNW 28 46 15 25 1008.9 1008.8 0.2
21/09:30pm 11.3 6.0 8.3 82 1.5 WNW 26 35 14 19 1008.7 1008.6 0.2
21/09:00pm 11.6 5.9 8.3 80 1.7 WNW 28 39 15 21 1008.6 1008.5 0.2
21/08:30pm 11.4 6.4 7.9 79 1.7 WNW 24 37 13 20 1008.1 1008.0 0.2
21/08:00pm 11.6 5.8 7.9 78 1.8 WNW 28 46 15 25 1007.5 1007.4 0.2
21/07:30pm 12.0 5.4 7.9 76 2.0 W 32 46 17 25 1007.1 1007.0 0.2
21/07:00pm 12.4 5.1 8.9 79 1.8 W 37 50 20 27 1006.4 1006.4 0.2
21/06:30pm 13.4 6.7 8.0 70 2.7 WNW 33 54 18 29 1005.7 1005.6 0.2
21/06:21pm 13.3 6.8 8.2 71 2.6 WNW 32 54 17 29 1005.7 1005.6 0.2
21/06:00pm 13.3 7.7 8.8 74 2.3 W 28 39 15 21 1005.8 1005.7 0.2
21/05:30pm 13.6 8.9 9.3 75 2.2 W 24 37 13 20 1006.0 1006.0 0.2
21/05:00pm 15.3 8.7 7.8 61 3.8 WSW 32 44 17 24 1005.9 1005.9 0.0
21/04:30pm 16.2 9.1 6.6 53 4.8 W 33 46 18 25 1005.3 1005.2 0.0
21/04:00pm 17.1 10.1 6.9 51 5.1 W 33 54 18 29 1005.1 1005.0 0.0
21/03:30pm 17.7 11.3 6.9 49 5.5 WSW 30 48 16 26 1004.9 1004.8 0.0
21/03:00pm 17.4 10.2 5.0 44 6.0 W 32 46 17 25 1004.9 1004.8 0.0
21/02:31pm 18.3 10.1 4.5 40 6.7 W 37 56 20 30 1004.8 1004.7 0.0
21/02:30pm 18.1 9.4 3.9 39 6.8 W 39 56 21 30 1004.8 1004.7 0.0
21/02:00pm 17.7 7.9 2.5 36 7.0 W 43 61 23 33 1005.0 1004.9 0.0
21/01:30pm 17.6 7.9 2.8 37 6.9 WNW 43 63 23 34 1005.3 1005.2 0.0
21/01:01pm 17.7 10.7 3.9 40 6.6 WNW 30 50 16 27 1005.6 1005.5 0.0
21/01:00pm 17.7 10.7 4.3 41 6.4 WNW 30 43 16 23 1005.6 1005.5 0.0
21/12:30pm 18.0 8.9 1.9 34 7.4 WNW 39 57 21 31 1005.7 1005.6 0.0
21/12:00pm 17.8 8.3 1.7 34 7.4 WNW 41 67 22 36 1005.8 1005.7 0.0
21/11:30am 17.8 7.6 0.0 30 7.9 WNW 43 67 23 36 1006.0 1006.0 0.0
21/11:00am 17.8 8.9 0.5 31 7.7 WNW 37 63 20 34 1006.0 1006.0 0.0
21/10:30am 16.9 7.3 -1.2 29 7.7 WNW 39 61 21 33 1006.2 1006.2 0.0
21/10:11am 17.0 9.2 -1.1 29 7.7 NW 30 48 16 26 1006.1 1006.1 0.0
21/10:00am 16.6 8.3 -1.5 29 7.6 NW 32 44 17 24 1006.2 1006.2 0.0
21/09:38am 15.8 8.3 -1.7 30 7.3 NW 28 50 15 27 1006.3 1006.3 0.0
21/09:30am 15.5 8.2 -0.3 34 6.8 NW 28 43 15 23 1006.4 1006.4 0.0
21/09:21am 15.0 7.7 -0.3 35 6.5 NW 28 48 15 26 1006.5 1006.5 0.0
21/09:00am 14.3 7.6 -0.9 35 6.4 NNW 24 37 13 20 1006.5 1006.5 0.0
21/08:30am 12.8 8.4 2.6 50 4.6 N 15 24 8 13 1006.5 1006.5 0.0
21/08:00am 11.1 7.7 3.9 61 3.2 NNE 11 17 6 9 1006.7 1006.6 0.0
21/07:30am 9.9 6.5 3.9 66 2.7 N 11 13 6 7 1006.8 1006.7 0.0
21/07:00am 7.9 5.2 3.9 76 1.8 ENE 7 9 4 5 1006.5 1006.5 0.0
21/06:30am 6.8 4.0 3.2 78 1.5 NE 7 9 4 5 1006.7 1006.6 0.0
21/06:00am 8.0 5.2 3.3 72 2.0 N 7 11 4 6 1006.5 1006.5 0.0
21/05:30am 8.1 4.7 3.8 74 1.9 NW 11 19 6 10 1006.5 1006.5 0.0
21/05:00am 8.1 4.0 4.3 77 1.7 NW 15 22 8 12 1006.5 1006.5 0.0
21/04:30am 8.5 3.7 4.9 78 1.6 NW 19 24 10 13 1006.4 1006.4 0.0
21/04:00am 9.0 3.7 5.2 77 1.7 WNW 22 32 12 17 1006.1 1006.1 0.0
21/03:30am 9.0 4.2 5.7 80 1.5 WNW 20 30 11 16 1006.0 1006.0 0.0
21/03:00am 9.4 3.5 5.9 79 1.6 W 26 37 14 20 1005.7 1005.6 0.0
21/02:30am 9.7 3.8 5.7 76 1.9 WNW 26 37 14 20 1005.3 1005.2 0.0
21/02:00am 10.2 4.1 6.4 77 1.8 W 28 39 15 21 1005.3 1005.2 0.0
21/01:30am 10.9 4.7 6.3 73 2.2 WNW 28 48 15 26 1006.5 1006.5 0.0
21/01:26am 11.1 5.0 6.5 73 2.2 WNW 28 48 15 26 1006.5 1006.5 0.0
21/01:00am 11.4 4.6 6.7 73 2.3 W 32 43 17 23 1006.8 1006.7 0.0
21/12:30am 11.7 4.8 6.6 71 2.5 W 32 50 17 27 1007.0 1006.9 0.0
21/12:06am 11.8 5.8 6.9 72 2.4 W 28 46 15 25 1007.2 1007.1 0.0
21/12:00am 12.0 5.5 6.3 68 2.7 W 30 39 16 21 1007.5 1007.4 0.0
 
Date/Time
CST
Temp
°C
App
Temp
°C
Dew
Point
°C
Rel
Hum
%
Delta-T
°C
Wind Press
QNH
hPa
Press
MSL
hPa
Rain since
9am
mm
Dir  Spd
km/h
Gust
km/h
Spd
kts
Gust
kts
20/11:47pm 12.4 5.2 5.1 61 3.4 W 32 54 17 29 1007.4 1007.3 0.0
20/11:30pm 12.5 6.5 7.2 70 2.6 W 28 44 15 24 1007.5 1007.4 0.0
20/11:00pm 13.1 8.8 9.2 77 2.0 W 22 33 12 18 1008.0 1007.9 0.0
20/10:30pm 13.6 7.4 9.5 76 2.1 W 32 44 17 24 1008.0 1007.9 0.0
20/10:00pm 13.6 7.9 9.8 78 2.0 W 30 44 16 24 1007.7 1007.6 0.0
20/09:30pm 14.2 9.5 10.6 79 1.9 W 26 37 14 20 1007.8 1007.7 0.0
20/09:00pm 14.5 9.9 10.9 79 1.9 W 26 35 14 19 1007.3 1007.2 0.0
20/08:30pm 14.9 9.8 12.0 83 1.6 W 30 39 16 21 1006.7 1006.6 0.0
20/08:00pm 15.2 11.7 12.3 83 1.6 W 22 30 12 16 1006.4 1006.4 0.0
20/07:30pm 15.3 12.4 12.2 82 1.7 W 19 24 10 13 1005.6 1005.5 0.0
20/07:00pm 15.2 12.0 12.0 81 1.8 WSW 20 33 11 18 1004.5 1004.4 0.0
20/06:33pm 15.8 10.3 12.0 78 2.1 WSW 32 50 17 27 1004.2 1004.1 0.0
20/06:30pm 16.0 9.9 11.8 76 2.3 WSW 35 50 19 27 1004.2 1004.1 0.0
20/06:12pm 16.9 9.9 11.4 70 3.0 W 39 57 21 31 1003.6 1003.5 0.0
20/06:10pm 17.0 9.1 10.8 67 3.4 W 43 57 23 31 1003.7 1003.6 0.0
20/06:01pm 22.1 18.2 9.6 45 6.8 NW 20 54 11 29 1002.7 1002.6 0.0
20/06:00pm 23.0 19.8 11.1 47 6.7 NNW 19 37 10 20 1002.3 1002.2 0.0
20/05:30pm 23.6 18.8 10.3 43 7.4 NNW 26 43 14 23 1001.5 1001.4 0.0
20/05:00pm 24.5 19.6 10.0 40 8.1 NW 26 41 14 22 1001.6 1001.5 0.0
20/04:52pm 24.5 19.1 9.6 39 8.2 NW 28 46 15 25 1001.5 1001.4 0.0

Other formats

Comma delimited format used in spreadsheet applications
http://www.bom.gov.au/fwo/IDS60801/IDS60801.94681.axf

JavaScript Object Notation format (JSON) in row-major order
http://www.bom.gov.au/fwo/IDS60801/IDS60801.94681.json

Data quality

Most of these data are generated automatically and are frequently updated. Quality checks on data are not normally performed. It is possible for incorrect values to appear. Refer to information at About Latest Weather Observations and please check the disclaimer before using these data.